sensor_id;sensor_type;location;lat;lon;timestamp;temperature;humidity
21682;DHT22;11002;48.256;10.084;2023-09-19T00:01:51;15.40;99.90
21682;DHT22;11002;48.256;10.084;2023-09-19T00:04:20;15.40;99.90
21682;DHT22;11002;48.256;10.084;2023-09-19T00:06:54;15.40;99.90
21682;DHT22;11002;48.256;10.084;2023-09-19T00:09:21;15.40;99.90
21682;DHT22;11002;48.256;10.084;2023-09-19T00:11:52;15.50;99.90
21682;DHT22;11002;48.256;10.084;2023-09-19T00:14:19;15.50;99.90
21682;DHT22;11002;48.256;10.084;2023-09-19T00:16:50;15.50;99.90
21682;DHT22;11002;48.256;10.084;2023-09-19T00:19:17;15.60;99.90
21682;DHT22;11002;48.256;10.084;2023-09-19T00:21:46;15.50;99.90
21682;DHT22;11002;48.256;10.084;2023-09-19T00:24:13;15.50;99.90
21682;DHT22;11002;48.256;10.084;2023-09-19T00:26:40;15.50;99.90
21682;DHT22;11002;48.256;10.084;2023-09-19T00:29:07;15.60;99.90
21682;DHT22;11002;48.256;10.084;2023-09-19T00:31:35;15.50;99.90
21682;DHT22;11002;48.256;10.084;2023-09-19T00:34:03;15.50;99.90
21682;DHT22;11002;48.256;10.084;2023-09-19T00:36:32;15.50;99.90
21682;DHT22;11002;48.256;10.084;2023-09-19T00:39:02;15.50;99.90
21682;DHT22;11002;48.256;10.084;2023-09-19T00:41:31;15.50;99.90
21682;DHT22;11002;48.256;10.084;2023-09-19T00:43:59;15.50;99.90
21682;DHT22;11002;48.256;10.084;2023-09-19T00:46:27;15.40;99.90
21682;DHT22;11002;48.256;10.084;2023-09-19T00:48:55;15.40;99.90
21682;DHT22;11002;48.256;10.084;2023-09-19T00:51:23;15.40;99.90
21682;DHT22;11002;48.256;10.084;2023-09-19T00:53:51;15.40;99.90
21682;DHT22;11002;48.256;10.084;2023-09-19T00:56:20;15.40;99.90
21682;DHT22;11002;48.256;10.084;2023-09-19T00:58:49;15.30;99.90
21682;DHT22;11002;48.256;10.084;2023-09-19T01:01:16;15.30;99.90
21682;DHT22;11002;48.256;10.084;2023-09-19T01:03:45;15.30;99.90
21682;DHT22;11002;48.256;10.084;2023-09-19T01:06:13;15.20;99.90
21682;DHT22;11002;48.256;10.084;2023-09-19T01:08:40;15.20;99.90
21682;DHT22;11002;48.256;10.084;2023-09-19T01:11:13;15.20;99.90
21682;DHT22;11002;48.256;10.084;2023-09-19T01:13:52;15.20;99.90
21682;DHT22;11002;48.256;10.084;2023-09-19T01:16:32;15.20;99.90
21682;DHT22;11002;48.256;10.084;2023-09-19T01:19:38;15.20;99.90
21682;DHT22;11002;48.256;10.084;2023-09-19T01:22:16;15.20;99.90
21682;DHT22;11002;48.256;10.084;2023-09-19T01:25:18;15.20;99.90
21682;DHT22;11002;48.256;10.084;2023-09-19T01:28:05;15.20;99.90
21682;DHT22;11002;48.256;10.084;2023-09-19T01:30:36;15.20;99.90
21682;DHT22;11002;48.256;10.084;2023-09-19T01:33:07;15.20;99.90
21682;DHT22;11002;48.256;10.084;2023-09-19T01:35:37;15.20;99.90
21682;DHT22;11002;48.256;10.084;2023-09-19T01:38:05;15.20;99.90
21682;DHT22;11002;48.256;10.084;2023-09-19T01:40:41;15.20;99.90
21682;DHT22;11002;48.256;10.084;2023-09-19T01:43:14;15.30;99.90
21682;DHT22;11002;48.256;10.084;2023-09-19T01:45:51;15.20;99.90
21682;DHT22;11002;48.256;10.084;2023-09-19T01:48:29;15.20;99.90
21682;DHT22;11002;48.256;10.084;2023-09-19T01:51:05;15.20;99.90
21682;DHT22;11002;48.256;10.084;2023-09-19T01:53:35;15.20;99.90
21682;DHT22;11002;48.256;10.084;2023-09-19T01:56:07;15.20;99.90
21682;DHT22;11002;48.256;10.084;2023-09-19T01:58:42;15.20;99.90
21682;DHT22;11002;48.256;10.084;2023-09-19T02:01:20;15.20;99.90
21682;DHT22;11002;48.256;10.084;2023-09-19T02:03:50;15.20;99.90
21682;DHT22;11002;48.256;10.084;2023-09-19T02:06:18;15.10;99.90
21682;DHT22;11002;48.256;10.084;2023-09-19T02:08:45;15.10;99.90
21682;DHT22;11002;48.256;10.084;2023-09-19T02:11:13;15.20;99.90
21682;DHT22;11002;48.256;10.084;2023-09-19T02:13:41;15.10;99.90
21682;DHT22;11002;48.256;10.084;2023-09-19T02:16:09;15.10;99.90
21682;DHT22;11002;48.256;10.084;2023-09-19T02:18:38;15.20;99.90
21682;DHT22;11002;48.256;10.084;2023-09-19T02:21:05;15.20;99.90
21682;DHT22;11002;48.256;10.084;2023-09-19T02:23:35;15.20;99.90
21682;DHT22;11002;48.256;10.084;2023-09-19T02:26:02;15.20;99.90
21682;DHT22;11002;48.256;10.084;2023-09-19T02:28:29;15.20;99.90
21682;DHT22;11002;48.256;10.084;2023-09-19T02:30:58;15.20;99.90
21682;DHT22;11002;48.256;10.084;2023-09-19T02:33:25;15.20;99.90
21682;DHT22;11002;48.256;10.084;2023-09-19T02:35:56;15.20;99.90
21682;DHT22;11002;48.256;10.084;2023-09-19T02:38:25;15.20;99.90
21682;DHT22;11002;48.256;10.084;2023-09-19T02:40:52;15.20;99.90
21682;DHT22;11002;48.256;10.084;2023-09-19T02:43:21;15.20;99.90
21682;DHT22;11002;48.256;10.084;2023-09-19T02:45:49;15.20;99.90
21682;DHT22;11002;48.256;10.084;2023-09-19T02:48:16;15.20;99.90
21682;DHT22;11002;48.256;10.084;2023-09-19T02:50:44;15.20;99.90
21682;DHT22;11002;48.256;10.084;2023-09-19T02:53:13;15.20;99.90
21682;DHT22;11002;48.256;10.084;2023-09-19T02:55:41;15.20;99.90
21682;DHT22;11002;48.256;10.084;2023-09-19T02:58:09;15.20;99.90
21682;DHT22;11002;48.256;10.084;2023-09-19T03:00:38;15.30;99.90
21682;DHT22;11002;48.256;10.084;2023-09-19T03:03:08;15.30;99.90
21682;DHT22;11002;48.256;10.084;2023-09-19T03:05:35;15.30;99.90
21682;DHT22;11002;48.256;10.084;2023-09-19T03:08:04;15.30;99.90
21682;DHT22;11002;48.256;10.084;2023-09-19T03:10:33;15.30;99.90
21682;DHT22;11002;48.256;10.084;2023-09-19T03:13:03;15.40;99.90
21682;DHT22;11002;48.256;10.084;2023-09-19T03:15:31;15.40;99.90
21682;DHT22;11002;48.256;10.084;2023-09-19T03:17:59;15.40;99.90
21682;DHT22;11002;48.256;10.084;2023-09-19T03:20:26;15.50;99.90
21682;DHT22;11002;48.256;10.084;2023-09-19T03:22:54;15.50;99.90
21682;DHT22;11002;48.256;10.084;2023-09-19T03:25:22;15.50;99.90
21682;DHT22;11002;48.256;10.084;2023-09-19T03:27:53;15.50;99.90
21682;DHT22;11002;48.256;10.084;2023-09-19T03:30:22;15.50;99.90
21682;DHT22;11002;48.256;10.084;2023-09-19T03:32:50;15.50;99.90
21682;DHT22;11002;48.256;10.084;2023-09-19T03:35:18;15.50;99.90
21682;DHT22;11002;48.256;10.084;2023-09-19T03:37:46;15.50;99.90
21682;DHT22;11002;48.256;10.084;2023-09-19T03:40:14;15.50;99.90
21682;DHT22;11002;48.256;10.084;2023-09-19T03:42:43;15.40;99.90
21682;DHT22;11002;48.256;10.084;2023-09-19T03:45:14;15.40;99.90
21682;DHT22;11002;48.256;10.084;2023-09-19T03:47:49;15.40;99.90
21682;DHT22;11002;48.256;10.084;2023-09-19T03:50:19;15.40;99.90
21682;DHT22;11002;48.256;10.084;2023-09-19T03:52:46;15.40;99.90
21682;DHT22;11002;48.256;10.084;2023-09-19T03:55:14;15.40;99.90
21682;DHT22;11002;48.256;10.084;2023-09-19T03:57:41;15.30;99.90
21682;DHT22;11002;48.256;10.084;2023-09-19T04:00:10;15.30;99.90
21682;DHT22;11002;48.256;10.084;2023-09-19T04:02:42;15.30;99.90
21682;DHT22;11002;48.256;10.084;2023-09-19T04:05:12;15.20;99.90
21682;DHT22;11002;48.256;10.084;2023-09-19T04:07:39;15.20;99.90
21682;DHT22;11002;48.256;10.084;2023-09-19T04:10:07;15.20;99.90
21682;DHT22;11002;48.256;10.084;2023-09-19T04:12:37;15.20;99.90
21682;DHT22;11002;48.256;10.084;2023-09-19T04:15:06;15.20;99.90
21682;DHT22;11002;48.256;10.084;2023-09-19T04:17:34;15.10;99.90
21682;DHT22;11002;48.256;10.084;2023-09-19T04:20:03;15.10;99.90
21682;DHT22;11002;48.256;10.084;2023-09-19T04:22:33;15.10;99.90
21682;DHT22;11002;48.256;10.084;2023-09-19T04:25:00;15.10;99.90
21682;DHT22;11002;48.256;10.084;2023-09-19T04:27:28;15.10;99.90
21682;DHT22;11002;48.256;10.084;2023-09-19T04:29:55;15.20;99.90
21682;DHT22;11002;48.256;10.084;2023-09-19T04:32:25;15.20;99.90
21682;DHT22;11002;48.256;10.084;2023-09-19T04:34:55;15.20;99.90
21682;DHT22;11002;48.256;10.084;2023-09-19T04:37:27;15.20;99.90
21682;DHT22;11002;48.256;10.084;2023-09-19T04:39:54;15.20;99.90
21682;DHT22;11002;48.256;10.084;2023-09-19T04:42:22;15.20;99.90
21682;DHT22;11002;48.256;10.084;2023-09-19T04:44:50;15.20;99.90
21682;DHT22;11002;48.256;10.084;2023-09-19T04:47:19;15.30;99.90
21682;DHT22;11002;48.256;10.084;2023-09-19T04:49:48;15.30;99.90
21682;DHT22;11002;48.256;10.084;2023-09-19T04:52:15;15.30;99.90
21682;DHT22;11002;48.256;10.084;2023-09-19T04:54:45;15.30;99.90
21682;DHT22;11002;48.256;10.084;2023-09-19T04:57:14;15.30;99.90
21682;DHT22;11002;48.256;10.084;2023-09-19T04:59:41;15.30;99.90
21682;DHT22;11002;48.256;10.084;2023-09-19T05:02:09;15.40;99.90
21682;DHT22;11002;48.256;10.084;2023-09-19T05:04:38;15.30;99.90
21682;DHT22;11002;48.256;10.084;2023-09-19T05:07:05;15.40;99.90
21682;DHT22;11002;48.256;10.084;2023-09-19T05:09:32;15.40;99.90
21682;DHT22;11002;48.256;10.084;2023-09-19T05:12:03;15.40;99.60
21682;DHT22;11002;48.256;10.084;2023-09-19T05:14:30;15.40;99.10
21682;DHT22;11002;48.256;10.084;2023-09-19T05:16:57;15.40;98.90
21682;DHT22;11002;48.256;10.084;2023-09-19T05:19:25;15.40;98.50
21682;DHT22;11002;48.256;10.084;2023-09-19T05:21:53;15.40;98.20
21682;DHT22;11002;48.256;10.084;2023-09-19T05:24:22;15.40;98.30
21682;DHT22;11002;48.256;10.084;2023-09-19T05:26:52;15.40;97.60
21682;DHT22;11002;48.256;10.084;2023-09-19T05:29:22;15.40;96.70
21682;DHT22;11002;48.256;10.084;2023-09-19T05:31:50;15.40;95.70
21682;DHT22;11002;48.256;10.084;2023-09-19T05:34:17;15.40;95.70
21682;DHT22;11002;48.256;10.084;2023-09-19T05:36:44;15.50;95.00
21682;DHT22;11002;48.256;10.084;2023-09-19T05:39:11;15.40;94.80
21682;DHT22;11002;48.256;10.084;2023-09-19T05:41:38;15.50;94.70
21682;DHT22;11002;48.256;10.084;2023-09-19T05:44:06;15.50;94.60
21682;DHT22;11002;48.256;10.084;2023-09-19T05:46:35;15.50;94.30
21682;DHT22;11002;48.256;10.084;2023-09-19T05:49:02;15.50;94.30
21682;DHT22;11002;48.256;10.084;2023-09-19T05:51:29;15.50;94.30
21682;DHT22;11002;48.256;10.084;2023-09-19T05:53:57;15.50;94.20
21682;DHT22;11002;48.256;10.084;2023-09-19T05:56:25;15.60;93.90
21682;DHT22;11002;48.256;10.084;2023-09-19T05:58:53;15.60;93.50
21682;DHT22;11002;48.256;10.084;2023-09-19T06:01:20;15.60;93.30
21682;DHT22;11002;48.256;10.084;2023-09-19T06:03:49;15.60;93.00
21682;DHT22;11002;48.256;10.084;2023-09-19T06:06:16;15.70;93.00
21682;DHT22;11002;48.256;10.084;2023-09-19T06:08:44;15.70;93.00
21682;DHT22;11002;48.256;10.084;2023-09-19T06:11:12;15.70;93.00
21682;DHT22;11002;48.256;10.084;2023-09-19T06:13:39;15.70;93.50
21682;DHT22;11002;48.256;10.084;2023-09-19T06:16:06;15.70;93.30
21682;DHT22;11002;48.256;10.084;2023-09-19T06:18:35;15.70;93.40
21682;DHT22;11002;48.256;10.084;2023-09-19T06:21:04;15.70;92.30
21682;DHT22;11002;48.256;10.084;2023-09-19T06:23:33;15.70;91.60
21682;DHT22;11002;48.256;10.084;2023-09-19T06:26:01;15.70;91.20
21682;DHT22;11002;48.256;10.084;2023-09-19T06:28:29;15.70;91.10
21682;DHT22;11002;48.256;10.084;2023-09-19T06:30:56;15.70;90.60
21682;DHT22;11002;48.256;10.084;2023-09-19T06:33:24;15.70;91.00
21682;DHT22;11002;48.256;10.084;2023-09-19T06:35:51;15.70;91.60
21682;DHT22;11002;48.256;10.084;2023-09-19T06:38:26;15.80;91.80
21682;DHT22;11002;48.256;10.084;2023-09-19T06:40:54;15.90;91.60
21682;DHT22;11002;48.256;10.084;2023-09-19T06:43:21;16.00;91.60
21682;DHT22;11002;48.256;10.084;2023-09-19T06:45:49;16.20;92.80
21682;DHT22;11002;48.256;10.084;2023-09-19T06:48:17;16.40;91.80
21682;DHT22;11002;48.256;10.084;2023-09-19T06:50:45;16.50;90.80
21682;DHT22;11002;48.256;10.084;2023-09-19T06:53:14;16.70;85.80
21682;DHT22;11002;48.256;10.084;2023-09-19T06:55:43;16.70;82.10
21682;DHT22;11002;48.256;10.084;2023-09-19T06:58:11;16.70;81.40
21682;DHT22;11002;48.256;10.084;2023-09-19T07:00:38;16.60;82.00
21682;DHT22;11002;48.256;10.084;2023-09-19T07:03:06;16.60;84.00
21682;DHT22;11002;48.256;10.084;2023-09-19T07:05:38;16.70;82.90
21682;DHT22;11002;48.256;10.084;2023-09-19T07:08:06;16.60;82.40
21682;DHT22;11002;48.256;10.084;2023-09-19T07:10:34;16.60;82.90
21682;DHT22;11002;48.256;10.084;2023-09-19T07:13:03;16.60;84.80
21682;DHT22;11002;48.256;10.084;2023-09-19T07:15:32;16.60;87.00
21682;DHT22;11002;48.256;10.084;2023-09-19T07:18:01;16.70;84.90
21682;DHT22;11002;48.256;10.084;2023-09-19T07:20:29;16.70;84.90
21682;DHT22;11002;48.256;10.084;2023-09-19T07:22:58;16.80;84.10
21682;DHT22;11002;48.256;10.084;2023-09-19T07:25:29;16.90;80.40
21682;DHT22;11002;48.256;10.084;2023-09-19T07:27:57;17.00;81.40
21682;DHT22;11002;48.256;10.084;2023-09-19T07:30:27;17.20;78.90
21682;DHT22;11002;48.256;10.084;2023-09-19T07:32:57;17.30;77.00
21682;DHT22;11002;48.256;10.084;2023-09-19T07:35:25;17.50;78.70
21682;DHT22;11002;48.256;10.084;2023-09-19T07:37:53;17.70;76.60
21682;DHT22;11002;48.256;10.084;2023-09-19T07:40:22;17.80;72.70
21682;DHT22;11002;48.256;10.084;2023-09-19T07:42:49;17.90;72.80
21682;DHT22;11002;48.256;10.084;2023-09-19T07:45:16;18.00;71.80
21682;DHT22;11002;48.256;10.084;2023-09-19T07:47:45;18.20;69.50
21682;DHT22;11002;48.256;10.084;2023-09-19T07:50:13;18.20;64.80
21682;DHT22;11002;48.256;10.084;2023-09-19T07:52:42;18.30;63.80
21682;DHT22;11002;48.256;10.084;2023-09-19T07:55:09;18.40;64.60
21682;DHT22;11002;48.256;10.084;2023-09-19T07:57:41;18.50;60.60
21682;DHT22;11002;48.256;10.084;2023-09-19T08:00:10;18.50;61.50
21682;DHT22;11002;48.256;10.084;2023-09-19T08:02:38;18.50;62.00
21682;DHT22;11002;48.256;10.084;2023-09-19T08:05:08;18.50;59.60
21682;DHT22;11002;48.256;10.084;2023-09-19T08:07:40;18.60;59.70
21682;DHT22;11002;48.256;10.084;2023-09-19T08:10:08;18.70;58.00
21682;DHT22;11002;48.256;10.084;2023-09-19T08:12:38;18.70;59.60
21682;DHT22;11002;48.256;10.084;2023-09-19T08:15:12;18.80;57.60
21682;DHT22;11002;48.256;10.084;2023-09-19T08:17:40;18.80;59.80
21682;DHT22;11002;48.256;10.084;2023-09-19T08:20:10;18.70;55.70
21682;DHT22;11002;48.256;10.084;2023-09-19T08:22:43;18.70;55.10
21682;DHT22;11002;48.256;10.084;2023-09-19T08:25:14;18.70;56.70
21682;DHT22;11002;48.256;10.084;2023-09-19T08:27:45;18.70;56.10
21682;DHT22;11002;48.256;10.084;2023-09-19T08:30:15;18.80;57.60
21682;DHT22;11002;48.256;10.084;2023-09-19T08:32:43;18.80;57.80
21682;DHT22;11002;48.256;10.084;2023-09-19T08:35:13;19.00;57.10
21682;DHT22;11002;48.256;10.084;2023-09-19T08:37:42;19.40;55.60
21682;DHT22;11002;48.256;10.084;2023-09-19T08:40:11;19.60;55.80
21682;DHT22;11002;48.256;10.084;2023-09-19T08:42:49;19.90;54.60
21682;DHT22;11002;48.256;10.084;2023-09-19T08:45:17;19.80;49.30
21682;DHT22;11002;48.256;10.084;2023-09-19T08:47:46;19.90;52.70
21682;DHT22;11002;48.256;10.084;2023-09-19T08:50:26;19.70;50.10
21682;DHT22;11002;48.256;10.084;2023-09-19T08:52:55;19.60;49.20
21682;DHT22;11002;48.256;10.084;2023-09-19T08:55:26;19.40;50.20
21682;DHT22;11002;48.256;10.084;2023-09-19T08:58:00;19.20;53.10
21682;DHT22;11002;48.256;10.084;2023-09-19T09:00:29;19.10;53.30
21682;DHT22;11002;48.256;10.084;2023-09-19T09:02:58;19.00;53.70
21682;DHT22;11002;48.256;10.084;2023-09-19T09:05:28;19.10;54.60
21682;DHT22;11002;48.256;10.084;2023-09-19T09:07:56;19.20;53.90
21682;DHT22;11002;48.256;10.084;2023-09-19T09:10:25;19.30;53.00
21682;DHT22;11002;48.256;10.084;2023-09-19T09:12:58;19.40;51.90
21682;DHT22;11002;48.256;10.084;2023-09-19T09:15:26;19.50;50.10
21682;DHT22;11002;48.256;10.084;2023-09-19T09:17:58;19.60;47.90
21682;DHT22;11002;48.256;10.084;2023-09-19T09:20:27;19.80;49.10
21682;DHT22;11002;48.256;10.084;2023-09-19T09:22:55;20.20;48.40
21682;DHT22;11002;48.256;10.084;2023-09-19T09:25:47;20.40;48.60
21682;DHT22;11002;48.256;10.084;2023-09-19T09:28:20;20.50;44.00
21682;DHT22;11002;48.256;10.084;2023-09-19T09:30:52;20.60;46.10
21682;DHT22;11002;48.256;10.084;2023-09-19T09:33:21;20.90;44.10
21682;DHT22;11002;48.256;10.084;2023-09-19T09:35:51;20.90;43.60
21682;DHT22;11002;48.256;10.084;2023-09-19T09:38:23;20.80;43.40
21682;DHT22;11002;48.256;10.084;2023-09-19T09:40:54;20.70;43.00
21682;DHT22;11002;48.256;10.084;2023-09-19T09:43:32;20.50;42.20
21682;DHT22;11002;48.256;10.084;2023-09-19T09:46:13;20.20;45.80
21682;DHT22;11002;48.256;10.084;2023-09-19T09:48:59;20.00;46.00
21682;DHT22;11002;48.256;10.084;2023-09-19T09:52:01;19.90;48.10
21682;DHT22;11002;48.256;10.084;2023-09-19T09:54:31;19.90;46.40
21682;DHT22;11002;48.256;10.084;2023-09-19T09:57:04;19.80;45.90
21682;DHT22;11002;48.256;10.084;2023-09-19T09:59:48;19.80;48.10
21682;DHT22;11002;48.256;10.084;2023-09-19T10:02:26;19.70;48.00
21682;DHT22;11002;48.256;10.084;2023-09-19T10:04:59;19.40;47.70
21682;DHT22;11002;48.256;10.084;2023-09-19T10:07:37;19.40;48.00
21682;DHT22;11002;48.256;10.084;2023-09-19T10:10:08;19.40;48.00
21682;DHT22;11002;48.256;10.084;2023-09-19T10:12:52;19.40;47.70
21682;DHT22;11002;48.256;10.084;2023-09-19T10:15:24;19.20;47.50
21682;DHT22;11002;48.256;10.084;2023-09-19T10:17:56;19.10;47.40
21682;DHT22;11002;48.256;10.084;2023-09-19T10:20:24;19.10;47.40
21682;DHT22;11002;48.256;10.084;2023-09-19T10:23:07;19.00;49.10
21682;DHT22;11002;48.256;10.084;2023-09-19T10:25:41;19.00;50.10
21682;DHT22;11002;48.256;10.084;2023-09-19T10:28:11;19.10;51.30
21682;DHT22;11002;48.256;10.084;2023-09-19T10:30:42;19.40;50.80
21682;DHT22;11002;48.256;10.084;2023-09-19T10:33:12;19.90;48.10
21682;DHT22;11002;48.256;10.084;2023-09-19T10:35:43;20.50;48.70
21682;DHT22;11002;48.256;10.084;2023-09-19T10:38:18;21.00;45.30
21682;DHT22;11002;48.256;10.084;2023-09-19T10:40:50;21.50;43.00
21682;DHT22;11002;48.256;10.084;2023-09-19T10:43:21;22.00;42.30
21682;DHT22;11002;48.256;10.084;2023-09-19T10:45:52;22.40;42.10
21682;DHT22;11002;48.256;10.084;2023-09-19T10:48:21;22.70;39.50
21682;DHT22;11002;48.256;10.084;2023-09-19T10:50:57;23.00;37.60
21682;DHT22;11002;48.256;10.084;2023-09-19T10:53:29;23.30;37.90
21682;DHT22;11002;48.256;10.084;2023-09-19T10:55:59;23.50;38.10
21682;DHT22;11002;48.256;10.084;2023-09-19T10:58:31;23.70;37.50
21682;DHT22;11002;48.256;10.084;2023-09-19T11:01:00;23.90;35.30
21682;DHT22;11002;48.256;10.084;2023-09-19T11:03:35;24.00;33.80
21682;DHT22;11002;48.256;10.084;2023-09-19T11:06:13;23.90;33.70
21682;DHT22;11002;48.256;10.084;2023-09-19T11:08:58;23.90;33.90
21682;DHT22;11002;48.256;10.084;2023-09-19T11:11:49;24.20;33.30
21682;DHT22;11002;48.256;10.084;2023-09-19T11:14:30;24.20;31.90
21682;DHT22;11002;48.256;10.084;2023-09-19T11:20:21;23.60;32.70
21682;DHT22;11002;48.256;10.084;2023-09-19T11:23:21;23.60;34.30
21682;DHT22;11002;48.256;10.084;2023-09-19T11:25:52;23.60;35.30
21682;DHT22;11002;48.256;10.084;2023-09-19T11:28:30;23.90;35.60
21682;DHT22;11002;48.256;10.084;2023-09-19T11:30:58;24.40;33.20
21682;DHT22;11002;48.256;10.084;2023-09-19T11:33:26;24.50;31.40
21682;DHT22;11002;48.256;10.084;2023-09-19T11:36:02;24.50;30.30
21682;DHT22;11002;48.256;10.084;2023-09-19T11:38:57;24.20;31.30
21682;DHT22;11002;48.256;10.084;2023-09-19T11:41:41;23.80;31.50
21682;DHT22;11002;48.256;10.084;2023-09-19T11:44:32;23.30;32.90
21682;DHT22;11002;48.256;10.084;2023-09-19T11:47:05;23.00;35.90
21682;DHT22;11002;48.256;10.084;2023-09-19T11:49:33;23.20;36.20
21682;DHT22;11002;48.256;10.084;2023-09-19T11:52:03;23.70;35.70
21682;DHT22;11002;48.256;10.084;2023-09-19T11:54:32;24.40;34.00
21682;DHT22;11002;48.256;10.084;2023-09-19T11:57:08;24.90;31.70
21682;DHT22;11002;48.256;10.084;2023-09-19T11:59:39;25.50;28.20
21682;DHT22;11002;48.256;10.084;2023-09-19T12:02:12;25.80;28.90
21682;DHT22;11002;48.256;10.084;2023-09-19T12:04:44;26.20;26.20
21682;DHT22;11002;48.256;10.084;2023-09-19T12:07:17;26.00;27.20
21682;DHT22;11002;48.256;10.084;2023-09-19T12:09:48;25.60;27.00
21682;DHT22;11002;48.256;10.084;2023-09-19T12:12:21;25.10;28.80
21682;DHT22;11002;48.256;10.084;2023-09-19T12:14:49;24.90;30.00
21682;DHT22;11002;48.256;10.084;2023-09-19T12:17:17;24.80;29.80
21682;DHT22;11002;48.256;10.084;2023-09-19T12:19:50;24.70;30.40
21682;DHT22;11002;48.256;10.084;2023-09-19T12:22:18;24.60;30.70
21682;DHT22;11002;48.256;10.084;2023-09-19T12:24:46;24.90;29.70
21682;DHT22;11002;48.256;10.084;2023-09-19T12:27:14;25.20;29.40
21682;DHT22;11002;48.256;10.084;2023-09-19T12:29:44;25.40;28.60
21682;DHT22;11002;48.256;10.084;2023-09-19T12:32:12;25.20;28.10
21682;DHT22;11002;48.256;10.084;2023-09-19T12:34:40;25.30;29.10
21682;DHT22;11002;48.256;10.084;2023-09-19T12:37:10;25.50;28.40
21682;DHT22;11002;48.256;10.084;2023-09-19T12:39:39;25.90;27.20
21682;DHT22;11002;48.256;10.084;2023-09-19T12:42:09;26.30;27.30
21682;DHT22;11002;48.256;10.084;2023-09-19T12:44:37;26.10;24.50
21682;DHT22;11002;48.256;10.084;2023-09-19T12:47:14;25.60;24.10
21682;DHT22;11002;48.256;10.084;2023-09-19T12:50:13;25.30;25.20
21682;DHT22;11002;48.256;10.084;2023-09-19T12:52:45;25.20;26.80
21682;DHT22;11002;48.256;10.084;2023-09-19T12:55:22;25.40;26.90
21682;DHT22;11002;48.256;10.084;2023-09-19T12:58:00;25.50;24.60
21682;DHT22;11002;48.256;10.084;2023-09-19T13:00:33;25.40;24.50
21682;DHT22;11002;48.256;10.084;2023-09-19T13:03:16;25.40;23.60
21682;DHT22;11002;48.256;10.084;2023-09-19T13:05:52;25.30;24.00
21682;DHT22;11002;48.256;10.084;2023-09-19T13:08:27;25.00;24.00
21682;DHT22;11002;48.256;10.084;2023-09-19T13:11:04;24.90;26.30
21682;DHT22;11002;48.256;10.084;2023-09-19T13:13:36;24.80;26.70
21682;DHT22;11002;48.256;10.084;2023-09-19T13:16:04;24.90;26.90
21682;DHT22;11002;48.256;10.084;2023-09-19T13:18:47;25.00;26.70
21682;DHT22;11002;48.256;10.084;2023-09-19T13:21:17;25.00;26.70
21682;DHT22;11002;48.256;10.084;2023-09-19T13:23:54;25.10;26.80
21682;DHT22;11002;48.256;10.084;2023-09-19T13:26:25;25.20;25.90
21682;DHT22;11002;48.256;10.084;2023-09-19T13:28:53;25.20;25.80
21682;DHT22;11002;48.256;10.084;2023-09-19T13:31:21;25.00;24.20
21682;DHT22;11002;48.256;10.084;2023-09-19T13:33:51;24.80;26.30
21682;DHT22;11002;48.256;10.084;2023-09-19T13:36:18;24.70;26.50
21682;DHT22;11002;48.256;10.084;2023-09-19T13:38:45;24.50;26.40
21682;DHT22;11002;48.256;10.084;2023-09-19T13:41:15;24.50;26.40
21682;DHT22;11002;48.256;10.084;2023-09-19T13:43:42;24.40;26.30
21682;DHT22;11002;48.256;10.084;2023-09-19T13:46:14;24.30;26.30
21682;DHT22;11002;48.256;10.084;2023-09-19T13:48:42;24.30;26.30
21682;DHT22;11002;48.256;10.084;2023-09-19T13:51:10;24.20;26.20
21682;DHT22;11002;48.256;10.084;2023-09-19T13:53:38;24.10;26.10
21682;DHT22;11002;48.256;10.084;2023-09-19T13:56:05;24.00;26.10
21682;DHT22;11002;48.256;10.084;2023-09-19T13:58:35;23.90;26.00
21682;DHT22;11002;48.256;10.084;2023-09-19T14:01:02;23.70;28.40
21682;DHT22;11002;48.256;10.084;2023-09-19T14:03:29;23.70;27.90
21682;DHT22;11002;48.256;10.084;2023-09-19T14:05:57;23.60;27.60
21682;DHT22;11002;48.256;10.084;2023-09-19T14:08:26;23.70;28.30
21682;DHT22;11002;48.256;10.084;2023-09-19T14:10:53;23.60;28.30
21682;DHT22;11002;48.256;10.084;2023-09-19T14:13:20;23.50;25.70
21682;DHT22;11002;48.256;10.084;2023-09-19T14:15:48;23.30;26.40
21682;DHT22;11002;48.256;10.084;2023-09-19T14:18:15;23.10;26.30
21682;DHT22;11002;48.256;10.084;2023-09-19T14:20:42;22.80;26.70
21682;DHT22;11002;48.256;10.084;2023-09-19T14:23:09;22.60;28.10
21682;DHT22;11002;48.256;10.084;2023-09-19T14:25:39;22.50;28.10
21682;DHT22;11002;48.256;10.084;2023-09-19T14:28:07;22.50;28.60
21682;DHT22;11002;48.256;10.084;2023-09-19T14:30:35;22.40;27.70
21682;DHT22;11002;48.256;10.084;2023-09-19T14:33:03;22.40;28.00
21682;DHT22;11002;48.256;10.084;2023-09-19T14:35:31;22.30;27.00
21682;DHT22;11002;48.256;10.084;2023-09-19T14:37:59;22.20;27.70
21682;DHT22;11002;48.256;10.084;2023-09-19T14:40:26;22.30;27.60
21682;DHT22;11002;48.256;10.084;2023-09-19T14:42:55;22.30;27.60
21682;DHT22;11002;48.256;10.084;2023-09-19T14:45:22;22.30;27.50
21682;DHT22;11002;48.256;10.084;2023-09-19T14:47:51;22.30;28.50
21682;DHT22;11002;48.256;10.084;2023-09-19T14:50:20;22.20;28.10
21682;DHT22;11002;48.256;10.084;2023-09-19T14:52:48;22.10;28.70
21682;DHT22;11002;48.256;10.084;2023-09-19T14:55:16;22.20;28.80
21682;DHT22;11002;48.256;10.084;2023-09-19T14:57:49;22.20;28.70
21682;DHT22;11002;48.256;10.084;2023-09-19T15:00:18;22.30;28.30
21682;DHT22;11002;48.256;10.084;2023-09-19T15:02:47;22.30;27.90
21682;DHT22;11002;48.256;10.084;2023-09-19T15:05:16;22.30;28.10
21682;DHT22;11002;48.256;10.084;2023-09-19T15:07:43;22.20;28.80
21682;DHT22;11002;48.256;10.084;2023-09-19T15:10:10;22.10;27.70
21682;DHT22;11002;48.256;10.084;2023-09-19T15:12:39;22.10;28.50
21682;DHT22;11002;48.256;10.084;2023-09-19T15:15:07;21.90;29.30
21682;DHT22;11002;48.256;10.084;2023-09-19T15:17:36;21.80;30.00
21682;DHT22;11002;48.256;10.084;2023-09-19T15:20:04;21.70;29.80
21682;DHT22;11002;48.256;10.084;2023-09-19T15:22:32;21.70;29.90
21682;DHT22;11002;48.256;10.084;2023-09-19T15:25:00;21.70;31.10
21682;DHT22;11002;48.256;10.084;2023-09-19T15:27:31;21.80;31.10
21682;DHT22;11002;48.256;10.084;2023-09-19T15:29:59;21.70;32.10
21682;DHT22;11002;48.256;10.084;2023-09-19T15:32:28;21.70;32.50
21682;DHT22;11002;48.256;10.084;2023-09-19T15:34:57;21.70;33.10
21682;DHT22;11002;48.256;10.084;2023-09-19T15:37:24;21.60;34.00
21682;DHT22;11002;48.256;10.084;2023-09-19T15:39:52;21.70;33.60